<?xml version='1.0' encoding='utf-8'?>
<gpx xmlns="http://www.topografix.com/GPX/1/1" xmlns:xsi="http://www.w3.org/2001/XMLSchema-instance" version="v1.1.5" creator="iTravel Tech Inc. - http://www.itravel-tech.com" xsi:schemaLocation="http://www.topografix.com/GPX/1/1 http://www.topografix.com/GPX/1/1/gpx.xsd http://www.topografix.com/GPX/gpx_overlay/0/3 http://www.topografix.com/GPX/gpx_overlay/0/3/gpx_overlay.xsd http://www.topografix.com/GPX/gpx_modified/0/1 http://www.topografix.com/GPX/gpx_modified/0/1/gpx_modified.xsd">
<trk>
<name>Holux2011/10/12_17:18</name>
<trkseg>
<trkpt lat="44.538822" lon="34.271732">
<ele>59.2</ele>
<time>2011-10-12T14:18:07Z</time>
<desc>lat.=44.538822, lon.=34.271732, Alt.=119.237366m. Speed=0.936000m/h.</desc>
<speed>0.260000</speed>
</trkpt>
<trkpt lat="44.539257" lon="34.272411">
<ele>43.0</ele>
<time>2011-10-12T14:18:47Z</time>
<desc>lat.=44.539257, lon.=34.272411, Alt.=118.424866m. Speed=8.532000m/h.</desc>
<speed>2.370000</speed>
</trkpt>
<trkpt lat="44.539646" lon="34.272526">
<ele>42.9</ele>
<time>2011-10-12T14:18:57Z</time>
<desc>lat.=44.539646, lon.=34.272526, Alt.=118.147522m. Speed=9.108000m/h.</desc>
<speed>2.530000</speed>
</trkpt>
<trkpt lat="44.540401" lon="34.272072">
<ele>59.5</ele>
<time>2011-10-12T14:19:12Z</time>
<desc>lat.=44.540401, lon.=34.272072, Alt.=117.551819m. Speed=13.932000m/h.</desc>
<speed>3.870000</speed>
</trkpt>
<trkpt lat="44.540955" lon="34.271198">
<ele>73.1</ele>
<time>2011-10-12T14:19:42Z</time>
<desc>lat.=44.540955, lon.=34.271198, Alt.=116.014709m. Speed=10.440000m/h.</desc>
<speed>2.900000</speed>
</trkpt>
<trkpt lat="44.539448" lon="34.272327">
<ele>43.4</ele>
<time>2011-10-12T14:20:07Z</time>
<desc>lat.=44.539448, lon.=34.272327, Alt.=52.466339m. Speed=4.428000m/h.</desc>
<speed>1.230000</speed>
</trkpt>
<trkpt lat="44.539742" lon="34.273205">
<ele>27.8</ele>
<time>2011-10-12T14:20:27Z</time>
<desc>lat.=44.539742, lon.=34.273205, Alt.=52.880402m. Speed=6.804000m/h.</desc>
<speed>1.890000</speed>
</trkpt>
<trkpt lat="44.539268" lon="34.272972">
<ele>33.7</ele>
<time>2011-10-12T14:20:42Z</time>
<desc>lat.=44.539268, lon.=34.272972, Alt.=49.427277m. Speed=16.992001m/h.</desc>
<speed>4.720000</speed>
</trkpt>
<trkpt lat="44.538399" lon="34.274212">
<ele>17.4</ele>
<time>2011-10-12T14:21:12Z</time>
<desc>lat.=44.538399, lon.=34.274212, Alt.=46.780792m. Speed=13.752000m/h.</desc>
<speed>3.820000</speed>
</trkpt>
<trkpt lat="44.537289" lon="34.273994">
<ele>13.8</ele>
<time>2011-10-12T14:21:32Z</time>
<desc>lat.=44.537289, lon.=34.273994, Alt.=40.131378m. Speed=4.356000m/h.</desc>
<speed>1.210000</speed>
</trkpt>
<trkpt lat="44.537342" lon="34.274315">
<ele>7.0</ele>
<time>2011-10-12T14:21:42Z</time>
<desc>lat.=44.537342, lon.=34.274315, Alt.=37.790558m. Speed=19.728001m/h.</desc>
<speed>5.480000</speed>
</trkpt>
<trkpt lat="44.537712" lon="34.274597">
<ele>5.3</ele>
<time>2011-10-12T14:21:57Z</time>
<desc>lat.=44.537712, lon.=34.274597, Alt.=37.961456m. Speed=2.700000m/h.</desc>
<speed>0.750000</speed>
</trkpt>
<trkpt lat="44.537193" lon="34.274647">
<ele>1.4</ele>
<time>2011-10-12T14:27:27Z</time>
<desc>lat.=44.537193, lon.=34.274647, Alt.=12.117317m. Speed=1.620000m/h.</desc>
<speed>0.450000</speed>
</trkpt>
<trkpt lat="44.539562" lon="34.275963">
<ele>0.9</ele>
<time>2011-10-12T14:29:22Z</time>
<desc>lat.=44.539562, lon.=34.275963, Alt.=-29.884537m. Speed=5.328000m/h.</desc>
<speed>1.480000</speed>
</trkpt>
<trkpt lat="44.540848" lon="34.277378">
<ele>1.0</ele>
<time>2011-10-12T14:30:37Z</time>
<desc>lat.=44.540848, lon.=34.277378, Alt.=-18.703384m. Speed=3.816000m/h.</desc>
<speed>1.060000</speed>
</trkpt>
<trkpt lat="44.540993" lon="34.277210">
<ele>3.6</ele>
<time>2011-10-12T14:31:22Z</time>
<desc>lat.=44.540993, lon.=34.277210, Alt.=-13.982796m. Speed=9.108000m/h.</desc>
<speed>2.530000</speed>
</trkpt>
<trkpt lat="44.542500" lon="34.279552">
<ele>5.0</ele>
<time>2011-10-12T14:32:52Z</time>
<desc>lat.=44.542500, lon.=34.279552, Alt.=5.112858m. Speed=4.824000m/h.</desc>
<speed>1.340000</speed>
</trkpt>
<trkpt lat="44.542709" lon="34.279079">
<ele>21.1</ele>
<time>2011-10-12T14:33:17Z</time>
<desc>lat.=44.542709, lon.=34.279079, Alt.=15.778450m. Speed=6.408000m/h.</desc>
<speed>1.780000</speed>
</trkpt>
<trkpt lat="44.543068" lon="34.279720">
<ele>25.2</ele>
<time>2011-10-12T14:33:57Z</time>
<desc>lat.=44.543068, lon.=34.279720, Alt.=30.593033m. Speed=1.944000m/h.</desc>
<speed>0.540000</speed>
</trkpt>
<trkpt lat="44.543007" lon="34.279305">
<ele>25.5</ele>
<time>2011-10-12T14:34:22Z</time>
<desc>lat.=44.543007, lon.=34.279305, Alt.=36.339386m. Speed=4.536000m/h.</desc>
<speed>1.260000</speed>
</trkpt>
<trkpt lat="44.543148" lon="34.279179">
<ele>29.0</ele>
<time>2011-10-12T14:35:32Z</time>
<desc>lat.=44.543148, lon.=34.279179, Alt.=28.935806m. Speed=2.628000m/h.</desc>
<speed>0.730000</speed>
</trkpt>
<trkpt lat="44.543072" lon="34.282024">
<ele>38.7</ele>
<time>2011-10-12T14:37:22Z</time>
<desc>lat.=44.543072, lon.=34.282024, Alt.=40.453644m. Speed=9.144000m/h.</desc>
<speed>2.540000</speed>
</trkpt>
<trkpt lat="44.544746" lon="34.284634">
<ele>40.8</ele>
<time>2011-10-12T14:39:42Z</time>
<desc>lat.=44.544746, lon.=34.284634, Alt.=37.932159m. Speed=9.576000m/h.</desc>
<speed>2.660000</speed>
</trkpt>
<trkpt lat="44.546497" lon="34.285561">
<ele>39.2</ele>
<time>2011-10-12T14:40:22Z</time>
<desc>lat.=44.546497, lon.=34.285561, Alt.=24.657974m. Speed=16.596001m/h.</desc>
<speed>4.610000</speed>
</trkpt>
<trkpt lat="44.546551" lon="34.286343">
<ele>39.0</ele>
<time>2011-10-12T14:40:42Z</time>
<desc>lat.=44.546551, lon.=34.286343, Alt.=30.574966m. Speed=14.364000m/h.</desc>
<speed>3.990000</speed>
</trkpt>
<trkpt lat="44.546932" lon="34.287655">
<ele>41.6</ele>
<time>2011-10-12T14:41:17Z</time>
<desc>lat.=44.546932, lon.=34.287655, Alt.=42.522980m. Speed=10.872000m/h.</desc>
<speed>3.020000</speed>
</trkpt>
<trkpt lat="44.547775" lon="34.289120">
<ele>66.7</ele>
<time>2011-10-12T14:42:17Z</time>
<desc>lat.=44.547775, lon.=34.289120, Alt.=55.251495m. Speed=6.768000m/h.</desc>
<speed>1.880000</speed>
</trkpt>
<trkpt lat="44.548267" lon="34.290340">
<ele>72.6</ele>
<time>2011-10-12T14:43:12Z</time>
<desc>lat.=44.548267, lon.=34.290340, Alt.=73.479553m. Speed=6.228000m/h.</desc>
<speed>1.730000</speed>
</trkpt>
<trkpt lat="44.548893" lon="34.290627">
<ele>74.6</ele>
<time>2011-10-12T14:43:42Z</time>
<desc>lat.=44.548893, lon.=34.290627, Alt.=66.272522m. Speed=10.656000m/h.</desc>
<speed>2.960000</speed>
</trkpt>
<trkpt lat="44.549137" lon="34.291187">
<ele>68.8</ele>
<time>2011-10-12T14:43:57Z</time>
<desc>lat.=44.549137, lon.=34.291187, Alt.=67.852600m. Speed=18.216000m/h.</desc>
<speed>5.060000</speed>
</trkpt>
<trkpt lat="44.549595" lon="34.293541">
<ele>61.6</ele>
<time>2011-10-12T14:44:22Z</time>
<desc>lat.=44.549595, lon.=34.293541, Alt.=57.512238m. Speed=33.804001m/h.</desc>
<speed>9.390000</speed>
</trkpt>
<trkpt lat="44.550686" lon="34.295795">
<ele>46.3</ele>
<time>2011-10-12T14:44:42Z</time>
<desc>lat.=44.550686, lon.=34.295795, Alt.=36.501495m. Speed=29.304001m/h.</desc>
<speed>8.140000</speed>
</trkpt>
<trkpt lat="44.550602" lon="34.296974">
<ele>49.4</ele>
<time>2011-10-12T14:44:57Z</time>
<desc>lat.=44.550602, lon.=34.296974, Alt.=33.247589m. Speed=16.740000m/h.</desc>
<speed>4.650000</speed>
</trkpt>
<trkpt lat="44.550865" lon="34.297573">
<ele>54.1</ele>
<time>2011-10-12T14:45:17Z</time>
<desc>lat.=44.550865, lon.=34.297573, Alt.=43.144073m. Speed=13.068000m/h.</desc>
<speed>3.630000</speed>
</trkpt>
<trkpt lat="44.551346" lon="34.297947">
<ele>56.9</ele>
<time>2011-10-12T14:45:32Z</time>
<desc>lat.=44.551346, lon.=34.297947, Alt.=44.406769m. Speed=13.428000m/h.</desc>
<speed>3.730000</speed>
</trkpt>
<trkpt lat="44.551754" lon="34.299030">
<ele>60.0</ele>
<time>2011-10-12T14:45:57Z</time>
<desc>lat.=44.551754, lon.=34.299030, Alt.=50.243683m. Speed=12.204000m/h.</desc>
<speed>3.390000</speed>
</trkpt>
<trkpt lat="44.552582" lon="34.298893">
<ele>66.1</ele>
<time>2011-10-12T14:46:32Z</time>
<desc>lat.=44.552582, lon.=34.298893, Alt.=54.632355m. Speed=5.976000m/h.</desc>
<speed>1.660000</speed>
</trkpt>
<trkpt lat="44.553413" lon="34.299183">
<ele>69.4</ele>
<time>2011-10-12T14:47:12Z</time>
<desc>lat.=44.553413, lon.=34.299183, Alt.=63.686066m. Speed=5.256000m/h.</desc>
<speed>1.460000</speed>
</trkpt>
<trkpt lat="44.553978" lon="34.298862">
<ele>74.9</ele>
<time>2011-10-12T14:47:37Z</time>
<desc>lat.=44.553978, lon.=34.298862, Alt.=60.734894m. Speed=6.804000m/h.</desc>
<speed>1.890000</speed>
</trkpt>
<trkpt lat="44.553631" lon="34.298252">
<ele>77.8</ele>
<time>2011-10-12T14:48:07Z</time>
<desc>lat.=44.553631, lon.=34.298252, Alt.=60.768097m. Speed=2.340000m/h.</desc>
<speed>0.650000</speed>
</trkpt>
<trkpt lat="44.553871" lon="34.298080">
<ele>79.7</ele>
<time>2011-10-12T14:49:27Z</time>
<desc>lat.=44.553871, lon.=34.298080, Alt.=58.553253m. Speed=3.060000m/h.</desc>
<speed>0.850000</speed>
</trkpt>
<trkpt lat="44.553810" lon="34.297821">
<ele>79.8</ele>
<time>2011-10-12T14:49:52Z</time>
<desc>lat.=44.553810, lon.=34.297821, Alt.=59.189972m. Speed=0.864000m/h.</desc>
<speed>0.240000</speed>
</trkpt>
<trkpt lat="44.553680" lon="34.298241">
<ele>77.9</ele>
<time>2011-10-12T14:50:37Z</time>
<desc>lat.=44.553680, lon.=34.298241, Alt.=58.528839m. Speed=1.800000m/h.</desc>
<speed>0.500000</speed>
</trkpt>
<trkpt lat="44.553570" lon="34.298077">
<ele>77.7</ele>
<time>2011-10-12T14:51:17Z</time>
<desc>lat.=44.553570, lon.=34.298077, Alt.=58.123566m. Speed=1.944000m/h.</desc>
<speed>0.540000</speed>
</trkpt>
<trkpt lat="44.553551" lon="34.298378">
<ele>77.5</ele>
<time>2011-10-12T14:51:42Z</time>
<desc>lat.=44.553551, lon.=34.298378, Alt.=59.477081m. Speed=0.288000m/h.</desc>
<speed>0.080000</speed>
</trkpt>
<trkpt lat="44.553745" lon="34.298336">
<ele>78.0</ele>
<time>2011-10-12T14:53:02Z</time>
<desc>lat.=44.553745, lon.=34.298336, Alt.=61.063995m. Speed=1.692000m/h.</desc>
<speed>0.470000</speed>
</trkpt>
<trkpt lat="44.552757" lon="34.297421">
<ele>80.6</ele>
<time>2011-10-12T14:54:12Z</time>
<desc>lat.=44.552757, lon.=34.297421, Alt.=67.342834m. Speed=9.216000m/h.</desc>
<speed>2.560000</speed>
</trkpt>
<trkpt lat="44.552570" lon="34.296902">
<ele>84.7</ele>
<time>2011-10-12T14:54:32Z</time>
<desc>lat.=44.552570, lon.=34.296902, Alt.=72.483459m. Speed=3.852000m/h.</desc>
<speed>1.070000</speed>
</trkpt>
<trkpt lat="44.552593" lon="34.297249">
<ele>82.4</ele>
<time>2011-10-12T14:54:57Z</time>
<desc>lat.=44.552593, lon.=34.297249, Alt.=73.376038m. Speed=4.464000m/h.</desc>
<speed>1.240000</speed>
</trkpt>
<trkpt lat="44.552677" lon="34.297329">
<ele>81.7</ele>
<time>2011-10-12T14:55:17Z</time>
<desc>lat.=44.552677, lon.=34.297329, Alt.=71.600647m. Speed=5.580000m/h.</desc>
<speed>1.550000</speed>
</trkpt>
<trkpt lat="44.551922" lon="34.295811">
<ele>85.2</ele>
<time>2011-10-12T14:56:22Z</time>
<desc>lat.=44.551922, lon.=34.295811, Alt.=66.868225m. Speed=11.160000m/h.</desc>
<speed>3.100000</speed>
</trkpt>
<trkpt lat="44.552132" lon="34.295071">
<ele>93.1</ele>
<time>2011-10-12T14:57:02Z</time>
<desc>lat.=44.552132, lon.=34.295071, Alt.=69.616272m. Speed=3.636000m/h.</desc>
<speed>1.010000</speed>
</trkpt>
<trkpt lat="44.551807" lon="34.295734">
<ele>83.7</ele>
<time>2011-10-12T14:59:12Z</time>
<desc>lat.=44.551807, lon.=34.295734, Alt.=69.430725m. Speed=7.740000m/h.</desc>
<speed>2.150000</speed>
</trkpt>
<trkpt lat="44.552071" lon="34.296188">
<ele>83.2</ele>
<time>2011-10-12T14:59:27Z</time>
<desc>lat.=44.552071, lon.=34.296188, Alt.=70.542053m. Speed=7.704000m/h.</desc>
<speed>2.140000</speed>
</trkpt>
<trkpt lat="44.552341" lon="34.296318">
<ele>85.8</ele>
<time>2011-10-12T14:59:37Z</time>
<desc>lat.=44.552341, lon.=34.296318, Alt.=76.930725m. Speed=10.080000m/h.</desc>
<speed>2.800000</speed>
</trkpt>
<trkpt lat="44.552811" lon="34.297604">
<ele>79.1</ele>
<time>2011-10-12T15:01:52Z</time>
<desc>lat.=44.552811, lon.=34.297604, Alt.=76.088928m. Speed=1.224000m/h.</desc>
<speed>0.340000</speed>
</trkpt>
<trkpt lat="44.553619" lon="34.295685">
<ele>101.7</ele>
<time>2011-10-12T15:02:57Z</time>
<desc>lat.=44.553619, lon.=34.295685, Alt.=83.385803m. Speed=8.316000m/h.</desc>
<speed>2.310000</speed>
</trkpt>
<trkpt lat="44.553467" lon="34.294903">
<ele>109.9</ele>
<time>2011-10-12T15:03:27Z</time>
<desc>lat.=44.553467, lon.=34.294903, Alt.=89.379944m. Speed=6.984000m/h.</desc>
<speed>1.940000</speed>
</trkpt>
<trkpt lat="44.552795" lon="34.293598">
<ele>112.6</ele>
<time>2011-10-12T15:04:32Z</time>
<desc>lat.=44.552795, lon.=34.293598, Alt.=105.210022m. Speed=6.948000m/h.</desc>
<speed>1.930000</speed>
</trkpt>
<trkpt lat="44.552876" lon="34.293079">
<ele>116.7</ele>
<time>2011-10-12T15:04:57Z</time>
<desc>lat.=44.552876, lon.=34.293079, Alt.=111.254944m. Speed=9.000000m/h.</desc>
<speed>2.500000</speed>
</trkpt>
<trkpt lat="44.553326" lon="34.292194">
<ele>127.8</ele>
<time>2011-10-12T15:05:42Z</time>
<desc>lat.=44.553326, lon.=34.292194, Alt.=121.055725m. Speed=7.092000m/h.</desc>
<speed>1.970000</speed>
</trkpt>
<trkpt lat="44.553516" lon="34.291203">
<ele>136.7</ele>
<time>2011-10-12T15:06:27Z</time>
<desc>lat.=44.553516, lon.=34.291203, Alt.=122.053772m. Speed=2.916000m/h.</desc>
<speed>0.810000</speed>
</trkpt>
<trkpt lat="44.552834" lon="34.290886">
<ele>141.3</ele>
<time>2011-10-12T15:07:42Z</time>
<desc>lat.=44.552834, lon.=34.290886, Alt.=123.475647m. Speed=10.332000m/h.</desc>
<speed>2.870000</speed>
</trkpt>
<trkpt lat="44.552032" lon="34.291626">
<ele>131.9</ele>
<time>2011-10-12T15:08:12Z</time>
<desc>lat.=44.552032, lon.=34.291626, Alt.=124.251038m. Speed=5.940000m/h.</desc>
<speed>1.650000</speed>
</trkpt>
<trkpt lat="44.551521" lon="34.290867">
<ele>129.3</ele>
<time>2011-10-12T15:08:42Z</time>
<desc>lat.=44.551521, lon.=34.290867, Alt.=115.752991m. Speed=12.096000m/h.</desc>
<speed>3.360000</speed>
</trkpt>
<trkpt lat="44.550472" lon="34.290905">
<ele>116.4</ele>
<time>2011-10-12T15:09:17Z</time>
<desc>lat.=44.550472, lon.=34.290905, Alt.=105.413147m. Speed=6.084000m/h.</desc>
<speed>1.690000</speed>
</trkpt>
<trkpt lat="44.550110" lon="34.290154">
<ele>116.9</ele>
<time>2011-10-12T15:09:52Z</time>
<desc>lat.=44.550110, lon.=34.290154, Alt.=104.610413m. Speed=8.856000m/h.</desc>
<speed>2.460000</speed>
</trkpt>
<trkpt lat="44.550301" lon="34.289291">
<ele>122.1</ele>
<time>2011-10-12T15:10:27Z</time>
<desc>lat.=44.550301, lon.=34.289291, Alt.=115.338928m. Speed=1.584000m/h.</desc>
<speed>0.440000</speed>
</trkpt>
<trkpt lat="44.550026" lon="34.290211">
<ele>114.1</ele>
<time>2011-10-12T15:10:52Z</time>
<desc>lat.=44.550026, lon.=34.290211, Alt.=109.499084m. Speed=13.320000m/h.</desc>
<speed>3.700000</speed>
</trkpt>
<trkpt lat="44.550396" lon="34.290867">
<ele>115.1</ele>
<time>2011-10-12T15:11:07Z</time>
<desc>lat.=44.550396, lon.=34.290867, Alt.=102.508850m. Speed=10.044000m/h.</desc>
<speed>2.790000</speed>
</trkpt>
<trkpt lat="44.550339" lon="34.291027">
<ele>113.7</ele>
<time>2011-10-12T15:11:17Z</time>
<desc>lat.=44.550339, lon.=34.291027, Alt.=99.592834m. Speed=0.468000m/h.</desc>
<speed>0.130000</speed>
</trkpt>
<trkpt lat="44.548801" lon="34.289509">
<ele>94.7</ele>
<time>2011-10-12T15:12:47Z</time>
<desc>lat.=44.548801, lon.=34.289509, Alt.=84.965881m. Speed=14.544000m/h.</desc>
<speed>4.040000</speed>
</trkpt>
<trkpt lat="44.549007" lon="34.287907">
<ele>90.4</ele>
<time>2011-10-12T15:13:32Z</time>
<desc>lat.=44.549007, lon.=34.287907, Alt.=75.251038m. Speed=0.036000m/h.</desc>
<speed>0.010000</speed>
</trkpt>
<trkpt lat="44.548752" lon="34.288109">
<ele>83.0</ele>
<time>2011-10-12T15:14:17Z</time>
<desc>lat.=44.548752, lon.=34.288109, Alt.=73.120178m. Speed=12.492000m/h.</desc>
<speed>3.470000</speed>
</trkpt>
<trkpt lat="44.548630" lon="34.288544">
<ele>79.1</ele>
<time>2011-10-12T15:14:32Z</time>
<desc>lat.=44.548630, lon.=34.288544, Alt.=68.633850m. Speed=11.160000m/h.</desc>
<speed>3.100000</speed>
</trkpt>
<trkpt lat="44.548462" lon="34.288029">
<ele>78.6</ele>
<time>2011-10-12T15:14:47Z</time>
<desc>lat.=44.548462, lon.=34.288029, Alt.=63.151886m. Speed=16.271999m/h.</desc>
<speed>4.520000</speed>
</trkpt>
<trkpt lat="44.548176" lon="34.287949">
<ele>68.1</ele>
<time>2011-10-12T15:14:57Z</time>
<desc>lat.=44.548176, lon.=34.287949, Alt.=59.488800m. Speed=9.108000m/h.</desc>
<speed>2.530000</speed>
</trkpt>
<trkpt lat="44.547962" lon="34.288147">
<ele>64.6</ele>
<time>2011-10-12T15:15:07Z</time>
<desc>lat.=44.547962, lon.=34.288147, Alt.=58.283722m. Speed=9.468000m/h.</desc>
<speed>2.630000</speed>
</trkpt>
<trkpt lat="44.547798" lon="34.288757">
<ele>63.9</ele>
<time>2011-10-12T15:15:22Z</time>
<desc>lat.=44.547798, lon.=34.288757, Alt.=53.890167m. Speed=10.188000m/h.</desc>
<speed>2.830000</speed>
</trkpt>
<trkpt lat="44.547592" lon="34.288788">
<ele>61.7</ele>
<time>2011-10-12T15:16:12Z</time>
<desc>lat.=44.547592, lon.=34.288788, Alt.=56.373566m. Speed=18.180000m/h.</desc>
<speed>5.050000</speed>
</trkpt>
<trkpt lat="44.546673" lon="34.286560">
<ele>40.4</ele>
<time>2011-10-12T15:16:37Z</time>
<desc>lat.=44.546673, lon.=34.286560, Alt.=33.716339m. Speed=33.299999m/h.</desc>
<speed>9.250000</speed>
</trkpt>
<trkpt lat="44.546619" lon="34.285366">
<ele>41.6</ele>
<time>2011-10-12T15:16:52Z</time>
<desc>lat.=44.546619, lon.=34.285366, Alt.=22.139420m. Speed=20.916000m/h.</desc>
<speed>5.810000</speed>
</trkpt>
<trkpt lat="44.545021" lon="34.284744">
<ele>41.4</ele>
<time>2011-10-12T15:17:27Z</time>
<desc>lat.=44.545021, lon.=34.284744, Alt.=17.209244m. Speed=14.472000m/h.</desc>
<speed>4.020000</speed>
</trkpt>
<trkpt lat="44.543976" lon="34.283081">
<ele>43.6</ele>
<time>2011-10-12T15:18:02Z</time>
<desc>lat.=44.543976, lon.=34.283081, Alt.=15.042366m. Speed=19.656000m/h.</desc>
<speed>5.460000</speed>
</trkpt>
<trkpt lat="44.543167" lon="34.282143">
<ele>42.2</ele>
<time>2011-10-12T15:18:42Z</time>
<desc>lat.=44.543167, lon.=34.282143, Alt.=6.302921m. Speed=8.532000m/h.</desc>
<speed>2.370000</speed>
</trkpt>
<trkpt lat="44.543259" lon="34.280849">
<ele>34.0</ele>
<time>2011-10-12T15:19:17Z</time>
<desc>lat.=44.543259, lon.=34.280849, Alt.=3.745028m. Speed=11.484000m/h.</desc>
<speed>3.190000</speed>
</trkpt>
<trkpt lat="44.543163" lon="34.279903">
<ele>27.4</ele>
<time>2011-10-12T15:19:37Z</time>
<desc>lat.=44.543163, lon.=34.279903, Alt.=9.359505m. Speed=10.584000m/h.</desc>
<speed>2.940000</speed>
</trkpt>
<trkpt lat="44.542789" lon="34.279083">
<ele>23.3</ele>
<time>2011-10-12T15:20:22Z</time>
<desc>lat.=44.542789, lon.=34.279083, Alt.=8.298958m. Speed=4.788000m/h.</desc>
<speed>1.330000</speed>
</trkpt>
<trkpt lat="44.542511" lon="34.279442">
<ele>6.1</ele>
<time>2011-10-12T15:20:42Z</time>
<desc>lat.=44.542511, lon.=34.279442, Alt.=4.876408m. Speed=7.236000m/h.</desc>
<speed>2.010000</speed>
</trkpt>
<trkpt lat="44.540897" lon="34.276817">
<ele>4.8</ele>
<time>2011-10-12T15:22:07Z</time>
<desc>lat.=44.540897, lon.=34.276817, Alt.=-17.531021m. Speed=6.336000m/h.</desc>
<speed>1.760000</speed>
</trkpt>
<trkpt lat="44.539982" lon="34.275795">
<ele>5.3</ele>
<time>2011-10-12T15:22:42Z</time>
<desc>lat.=44.539982, lon.=34.275795, Alt.=-7.482731m. Speed=13.104000m/h.</desc>
<speed>3.640000</speed>
</trkpt>
<trkpt lat="44.537006" lon="34.274334">
<ele>3.1</ele>
<time>2011-10-12T15:24:12Z</time>
<desc>lat.=44.537006, lon.=34.274334, Alt.=-13.716927m. Speed=10.116000m/h.</desc>
<speed>2.810000</speed>
</trkpt>
<trkpt lat="44.536922" lon="34.273827">
<ele>9.8</ele>
<time>2011-10-12T15:24:37Z</time>
<desc>lat.=44.536922, lon.=34.273827, Alt.=-8.620735m. Speed=4.536000m/h.</desc>
<speed>1.260000</speed>
</trkpt>
<trkpt lat="44.537086" lon="34.273743">
<ele>14.1</ele>
<time>2011-10-12T15:25:22Z</time>
<desc>lat.=44.537086, lon.=34.273743, Alt.=-7.796329m. Speed=2.088000m/h.</desc>
<speed>0.580000</speed>
</trkpt>
<trkpt lat="44.537235" lon="34.273026">
<ele>26.1</ele>
<time>2011-10-12T15:29:52Z</time>
<desc>lat.=44.537235, lon.=34.273026, Alt.=4.111637m. Speed=2.700000m/h.</desc>
<speed>0.750000</speed>
</trkpt>
<trkpt lat="44.537128" lon="34.273232">
<ele>22.3</ele>
<time>2011-10-12T15:33:42Z</time>
<desc>lat.=44.537128, lon.=34.273232, Alt.=7.819157m. Speed=1.116000m/h.</desc>
<speed>0.310000</speed>
</trkpt>
<trkpt lat="44.537289" lon="34.273312">
<ele>25.9</ele>
<time>2011-10-12T15:35:47Z</time>
<desc>lat.=44.537289, lon.=34.273312, Alt.=11.138802m. Speed=0.180000m/h.</desc>
<speed>0.050000</speed>
</trkpt>
<trkpt lat="44.537205" lon="34.273224">
<ele>24.2</ele>
<time>2011-10-12T15:36:52Z</time>
<desc>lat.=44.537205, lon.=34.273224, Alt.=11.797981m. Speed=0.216000m/h.</desc>
<speed>0.060000</speed>
</trkpt>
<trkpt lat="44.537178" lon="34.273453">
<ele>21.5</ele>
<time>2011-10-12T15:39:22Z</time>
<desc>lat.=44.537178, lon.=34.273453, Alt.=14.284309m. Speed=0.468000m/h.</desc>
<speed>0.130000</speed>
</trkpt>
<trkpt lat="44.537212" lon="34.273243">
<ele>24.3</ele>
<time>2011-10-12T15:40:27Z</time>
<desc>lat.=44.537212, lon.=34.273243, Alt.=17.576920m. Speed=1.044000m/h.</desc>
<speed>0.290000</speed>
</trkpt>
<trkpt lat="44.537006" lon="34.273312">
<ele>18.9</ele>
<time>2011-10-12T15:41:47Z</time>
<desc>lat.=44.537006, lon.=34.273312, Alt.=19.737564m. Speed=0.648000m/h.</desc>
<speed>0.180000</speed>
</trkpt>
<trkpt lat="44.537323" lon="34.273361">
<ele>26.6</ele>
<time>2011-10-12T15:46:17Z</time>
<desc>lat.=44.537323, lon.=34.273361, Alt.=21.638931m. Speed=1.224000m/h.</desc>
<speed>0.340000</speed>
</trkpt>
<trkpt lat="44.537144" lon="34.273720">
<ele>16.4</ele>
<time>2011-10-12T15:49:22Z</time>
<desc>lat.=44.537144, lon.=34.273720, Alt.=21.839615m. Speed=0.252000m/h.</desc>
<speed>0.070000</speed>
</trkpt>
</trkseg>
</trk>
</gpx>